Terminal Aerodrome Forecast
Issued by NWS

Home | Current Version | Previous Version | Text Only | Print | Product List | Glossary On
Versions: 1 2 3 4 5 6 7 8 9 10 11 12 13 14
000
FTUS45 KTFX 280533
TAFCTB
TAF
KCTB 280533Z 2806/2906 29012G21KT P6SM BKN050 BKN070
      TEMPO 2806/2808 -RA
     FM280800 28015KT P6SM VCSH BKN090 BKN120
     FM281400 28020G28KT P6SM SCT070 BKN150=

USA.gov is the U.S. government's official web portal to all federal, state and local government web resources and services.